Painted Rocks, Iowa
Current Conditions -  °F | °C
As of 9:15 AM on Thursday 30 Oct 2014 (Local Time) from KPEA Reporting Station
Scattered Clouds Scattered Clouds  
Wind Chill: 39°   Ceiling: Unl
Heat Index: 45°   Visibility: 10mi
Dew Point: 37°   Wind: 12mph
Humidity: 75%   Direction: 160°SSE
Pressure: 30.05"   Gusts: NA
Location:  41.4592°N, 93.0401°W
Report Text: KPEA 301415Z AUTO 16010KT 10SM SCT080 07/03 A3005 RMK AO2 T00710030
Loading
Personal Weather Stations






























Interactive Weather Map
Tropical Storm Tracking
New forecast layout! Learn more

10-Day Weather Forecast

Advertisements
Track Severe Weather on mobile